Flight Track Log - Related Links

Times and Time Zones

All times are in EDT time to prevent confusion due to time zone crossing. See the EGF3406 flight status page for this flight to view local times or setup timezone preferences in your user account.

Time Position Orientation Groundspeed Altitude Reporting Facility
EDT Latitude Longitude Course Direction KTS MPH feet Rate Location/Type
Sun 06:13:18 PM 32.8500 -97.0333 357° North 184 212 2,400  Level Dallas / Fort Worth TRACON
Sun 06:14:18 PM 32.8000 -97.0000 151° Southeast 205 236 4,900 2,100 Climbing Dallas / Fort Worth TRACON
Sun 06:15:00 PM 32.8239 -96.8052 10° North  Level FlightAware Approximate
Sun 06:15:18 PM 32.7667 -96.9500 128° Southeast 257 296 6,600  Level Dallas / Fort Worth TRACON
Sun 06:16:00 PM 32.9371 -96.8000 North  Level FlightAware Approximate
Sun 06:17:00 PM 33.0506 -96.8000 North  Level FlightAware Approximate
Sun 06:17:06 PM 32.8636 -96.8792 32° Northeast 300 345 10,000  Level Fort Worth Center
Sun 06:18:00 PM 33.1641 -96.8061 357° North  Level FlightAware Approximate
Sun 06:18:06 PM 32.9469 -96.8739 North 286 329 11,600  Level Fort Worth Center
Sun 06:19:06 PM 33.0472 -96.8633 North 313 360 13,100 1,450 Climbing Fort Worth Center
Sun 06:20:06 PM 33.1431 -96.8553 North 334 384 14,500 1,800 Climbing Fort Worth Center
Sun 06:21:06 PM 33.2411 -96.8472 North 344 396 16,700 1,750 Climbing Fort Worth Center
Sun 06:22:06 PM 33.3331 -96.8367 North 344 396 18,000 1,500 Climbing Fort Worth Center
Sun 06:23:06 PM 33.4311 -96.8261 North 349 402 19,700 1,550 Climbing Fort Worth Center
Sun 06:24:06 PM 33.5228 -96.7806 23° Northeast 349 402 21,100 1,300 Climbing Fort Worth Center
Sun 06:25:06 PM 33.6142 -96.7200 29° Northeast 365 420 22,300 950 Climbing Fort Worth Center
Sun 06:26:06 PM 33.7078 -96.6594 28° Northeast 380 437 23,000 350 Climbing Fort Worth Center
Sun 06:27:06 PM 33.8097 -96.5936 28° Northeast 397 457 23,000  Level Fort Worth Center
Sun 06:28:06 PM 33.9094 -96.5275 29° Northeast 403 464 23,000  Level Fort Worth Center
Sun 06:29:06 PM 34.0092 -96.4664 27° Northeast 403 464 23,000  Level Fort Worth Center
Sun 06:30:06 PM 34.0922 -96.4103 29° Northeast 403 464 23,000  Level Fort Worth Center
Sun 06:31:06 PM 34.1917 -96.3239 36° Northeast 403 464 23,000  Level Fort Worth Center
Sun 06:32:06 PM 34.2889 -96.2447 34° Northeast 413 475 23,000  Level Fort Worth Center
Sun 06:33:06 PM 34.3883 -96.1628 34° Northeast 419 482 23,000  Level Fort Worth Center
Sun 06:34:06 PM 34.4856 -96.0833 34° Northeast 419 482 23,000  Level Fort Worth Center
Sun 06:35:06 PM 34.5869 -95.9986 35° Northeast 419 482 23,000 -50 Level Fort Worth Center
Sun 06:36:06 PM 34.6839 -95.9186 34° Northeast 424 488 22,900 -500 Descending Fort Worth Center
Sun 06:37:06 PM 34.7811 -95.8386 34° Northeast 419 482 22,000 -950 Descending Fort Worth Center
Sun 06:38:06 PM 34.8633 -95.7408 44° Northeast 419 482 21,000 -1,000 Descending Fort Worth Center
Sun 06:39:06 PM 34.9156 -95.6006 66° East 422 486 20,000 -1,050 Descending Fort Worth Center
Sun 06:40:06 PM 34.9594 -95.4731 67° East 422 486 18,900 -1,650 Descending Fort Worth Center
Sun 06:41:06 PM 35.0094 -95.3325 66° East 411 473 16,700 -2,350 Descending Fort Worth Center
Sun 06:42:06 PM 35.0472 -95.2200 68° East 400 460 14,200 -2,500 Descending Fort Worth Center
Sun 06:44:00 PM 35.1127 -95.0119 68° East  Level FlightAware Approximate
Sun 06:51:00 PM 35.3333 -94.3667 58° Northeast  Level FlightAware Approximate
Sun 06:52:00 PM 35.3366 -94.3674 58° Northeast  Level Estimated
Sun 06:53:00 PM 35.3333 -94.3667 58° Northeast  Level FlightAware Approximate
Sun 06:54:00 PM 35.3366 -94.3674 58° Northeast  Level Estimated

Login

Don't have an account? Register now (free) for customized features, flight alerts, and more!